Time;durP1;ratioP1;P1;durP2;ratioP2;P2;SDS_P1;SDS_P2;PMS_P1;PMS_P2;Temp;Humidity;BMP_temperature;BMP_pressure;BME280_temperature;BME280_humidity;BME280_pressure;Samples;Min_cycle;Max_cycle;Signal;HPM_P1;HPM_P2
2022/05/26 00:02:04;;;;;;;8.18;3.90;;;13.50;99.90;;;;;;4940948;28;20113;-92
2022/05/26 00:04:30;;;;;;;9.93;4.40;;;13.40;99.90;;;;;;4909421;28;20051;-92
2022/05/26 00:06:55;;;;;;;12.30;6.07;;;13.30;99.90;;;;;;4950894;28;20075;-92
2022/05/26 00:09:22;;;;;;;15.23;7.95;;;13.40;99.90;;;;;;4954065;28;20043;-91
2022/05/26 00:11:48;;;;;;;16.83;9.75;;;13.40;99.90;;;;;;4944468;28;20090;-91
2022/05/26 00:14:13;;;;;;;18.00;11.32;;;13.40;99.90;;;;;;4938501;28;20047;-87
2022/05/26 00:16:44;;;;;;;21.05;12.23;;;13.40;99.90;;;;;;4951388;28;20047;-89
2022/05/26 00:19:16;;;;;;;21.38;13.43;;;13.40;99.90;;;;;;4926501;29;20382;-90
2022/05/26 00:21:42;;;;;;;19.65;13.60;;;13.50;99.90;;;;;;4916177;28;20055;-87
2022/05/26 00:24:08;;;;;;;24.35;15.35;;;13.50;99.90;;;;;;4945735;28;20035;-87
2022/05/26 00:26:34;;;;;;;24.48;15.98;;;13.50;99.90;;;;;;4948515;28;20055;-88
2022/05/26 00:29:00;;;;;;;35.15;18.98;;;13.50;99.90;;;;;;4943982;28;20668;-89
2022/05/26 00:31:25;;;;;;;29.60;18.90;;;13.50;99.90;;;;;;4926571;28;20039;-88
2022/05/26 00:33:51;;;;;;;27.70;19.65;;;13.60;99.90;;;;;;4929819;28;20917;-88
2022/05/26 00:36:37;;;;;;;30.83;19.92;;;13.60;99.90;;;;;;4952322;28;20506;-89
2022/05/26 00:39:09;;;;;;;39.75;21.05;;;13.60;99.90;;;;;;4931875;28;20038;-89
2022/05/26 00:41:38;;;;;;;33.33;21.02;;;13.60;99.90;;;;;;4945539;28;20051;-91
2022/05/26 00:44:04;;;;;;;41.58;21.42;;;13.60;99.90;;;;;;4930124;28;20039;-87
2022/05/26 00:46:40;;;;;;;40.58;21.77;;;13.60;99.90;;;;;;4930631;28;20062;-89
2022/05/26 00:49:13;;;;;;;33.58;21.42;;;13.70;99.90;;;;;;4929371;28;20043;-89
2022/05/26 00:51:39;;;;;;;33.70;21.38;;;13.60;99.90;;;;;;4935945;28;20503;-89
2022/05/26 00:54:12;;;;;;;31.30;21.45;;;13.70;99.90;;;;;;4916615;28;20039;-89
2022/05/26 00:56:44;;;;;;;33.97;21.85;;;13.70;99.90;;;;;;4924277;29;20039;-90
2022/05/26 00:59:19;;;;;;;53.90;24.15;;;13.70;99.90;;;;;;4946305;28;20447;-88
2022/05/26 01:01:45;;;;;;;32.35;21.05;;;13.80;99.90;;;;;;4917995;28;20043;-87
2022/05/26 01:04:20;;;;;;;35.03;22.63;;;13.80;99.90;;;;;;4937560;29;20031;-92
2022/05/26 01:06:51;;;;;;;37.63;24.50;;;13.80;99.90;;;;;;4930119;28;20054;-91
2022/05/26 01:09:16;;;;;;;41.25;23.77;;;13.80;99.90;;;;;;4933468;29;20114;-88
2022/05/26 01:11:44;;;;;;;47.85;26.35;;;13.80;99.90;;;;;;4916892;28;20053;-88
2022/05/26 01:14:15;;;;;;;36.20;24.90;;;13.80;99.90;;;;;;4934262;28;20067;-90
2022/05/26 01:16:59;;;;;;;40.97;24.58;;;13.80;99.90;;;;;;4951153;28;20870;-89
2022/05/26 01:20:02;;;;;;;43.72;25.33;;;13.90;99.90;;;;;;4949106;28;20053;-87
2022/05/26 01:22:49;;;;;;;52.22;25.33;;;13.90;99.90;;;;;;4933549;28;20380;-90
2022/05/26 01:25:35;;;;;;;54.35;26.40;;;13.90;99.90;;;;;;4951641;28;20166;-90
2022/05/26 01:28:20;;;;;;;48.30;24.40;;;13.90;99.90;;;;;;4941602;28;20185;-90
2022/05/26 01:30:58;;;;;;;45.42;23.73;;;13.90;99.90;;;;;;4926555;28;20042;-93
2022/05/26 01:33:26;;;;;;;40.30;24.77;;;13.90;99.90;;;;;;4917380;28;20050;-91
2022/05/26 01:36:15;;;;;;;40.38;24.88;;;14.00;99.90;;;;;;4939289;28;20050;-93
2022/05/26 01:38:59;;;;;;;41.78;24.55;;;14.00;99.90;;;;;;4953680;28;20055;-91
2022/05/26 01:41:50;;;;;;;43.75;24.63;;;14.00;99.90;;;;;;4922942;28;20739;-93
2022/05/26 01:44:54;;;;;;;43.40;24.52;;;14.00;99.90;;;;;;4932538;28;20047;-92
2022/05/26 01:47:36;;;;;;;50.63;26.15;;;14.00;99.90;;;;;;4934907;29;20125;-92
2022/05/26 01:50:19;;;;;;;37.35;23.83;;;14.00;99.90;;;;;;4936909;28;20058;-92
2022/05/26 01:52:56;;;;;;;40.22;23.83;;;14.00;99.90;;;;;;4960750;28;20065;-95
2022/05/26 01:55:31;;;;;;;42.13;24.50;;;14.00;99.90;;;;;;4945445;28;20055;-92
2022/05/26 01:58:06;;;;;;;42.28;23.40;;;14.00;99.90;;;;;;4930213;28;20483;-96
2022/05/26 02:00:32;;;;;;;45.95;24.13;;;14.10;99.90;;;;;;4958244;28;20051;-95
2022/05/26 02:03:14;;;;;;;51.28;24.92;;;14.10;99.90;;;;;;4963584;28;20053;-93
2022/05/26 02:05:47;;;;;;;49.08;25.02;;;14.00;99.90;;;;;;4951699;28;20047;-96
2022/05/26 02:08:23;;;;;;;49.78;24.50;;;14.00;99.90;;;;;;4975593;28;20043;-93
2022/05/26 02:11:12;;;;;;;38.53;22.63;;;14.00;99.90;;;;;;4948953;28;20051;-95
2022/05/26 02:14:01;;;;;;;40.63;22.42;;;14.00;99.90;;;;;;4965725;28;20050;-94
2022/05/26 02:16:32;;;;;;;47.58;22.95;;;14.00;99.90;;;;;;4937182;28;20054;-93
2022/05/26 02:19:15;;;;;;;55.85;23.83;;;14.00;99.90;;;;;;4963532;28;20043;-95
2022/05/26 02:21:48;;;;;;;56.85;25.17;;;14.00;99.90;;;;;;4964583;28;20051;-92
2022/05/26 02:24:33;;;;;;;52.58;23.88;;;14.00;99.90;;;;;;4924171;28;20209;-95
2022/05/26 02:26:59;;;;;;;41.17;22.98;;;14.00;99.90;;;;;;4954962;28;20083;-94
2022/05/26 02:32:11;;;;;;;38.70;22.05;;;14.00;99.90;;;;;;5151095;23;20149;-94
2022/05/26 02:34:39;;;;;;;40.42;22.40;;;14.00;99.90;;;;;;4974469;28;20458;-95
2022/05/26 02:37:07;;;;;;;48.58;22.95;;;14.00;99.90;;;;;;4969439;28;20121;-94
2022/05/26 02:39:33;;;;;;;44.08;22.17;;;14.00;99.90;;;;;;4964578;28;20547;-95
2022/05/26 02:41:59;;;;;;;52.35;23.08;;;14.00;99.90;;;;;;4976638;28;20046;-96
2022/05/26 02:47:17;;;;;;;55.58;24.08;;;14.00;99.90;;;;;;5267162;23;20025;31
2022/05/26 02:52:58;;;;;;;58.30;23.85;;;14.00;99.90;;;;;;4987296;28;20063;-95
2022/05/26 02:55:56;;;;;;;47.60;22.80;;;14.00;99.90;;;;;;4996490;28;20043;-95
2022/05/26 02:58:38;;;;;;;58.63;23.88;;;14.00;99.90;;;;;;4963454;28;20561;-94
2022/05/26 03:01:06;;;;;;;45.97;22.38;;;14.00;99.90;;;;;;4945783;28;20042;-93
2022/05/26 03:03:52;;;;;;;47.67;22.25;;;14.00;99.90;;;;;;5146883;23;20059;-95
2022/05/26 03:08:56;;;;;;;71.13;24.25;;;14.00;99.90;;;;;;5051247;23;20054;-96
2022/05/26 03:11:29;;;;;;;41.25;20.60;;;14.00;99.90;;;;;;4995336;28;20042;-94
2022/05/26 03:13:55;;;;;;;46.55;21.13;;;14.00;99.90;;;;;;4988081;28;20042;-95
2022/05/26 03:16:24;;;;;;;55.33;22.20;;;14.10;99.90;;;;;;4967123;28;20034;-95
2022/05/26 03:18:51;;;;;;;50.33;20.70;;;14.00;99.90;;;;;;5033383;23;20197;-94
2022/05/26 03:21:17;;;;;;;50.37;20.60;;;14.00;99.90;;;;;;5006182;23;20046;-94
2022/05/26 03:23:43;;;;;;;47.65;18.50;;;14.00;99.90;;;;;;4980455;23;20053;-94
2022/05/26 03:26:08;;;;;;;36.55;17.08;;;14.00;99.90;;;;;;4967829;28;20082;-95
2022/05/26 03:28:35;;;;;;;39.33;17.77;;;14.00;99.90;;;;;;4954800;28;20090;-95
2022/05/26 03:31:05;;;;;;;42.72;16.63;;;14.00;99.90;;;;;;4960552;28;20070;-95
2022/05/26 03:40:45;;;;;;;43.53;16.58;;;14.00;99.90;;;;;;4948866;28;20043;-92
2022/05/26 03:41:44;;;;;;;43.55;15.65;;;14.00;99.90;;;;;;4950635;28;20082;-94
2022/05/26 03:44:10;;;;;;;35.83;15.63;;;14.00;99.90;;;;;;4947177;28;20112;-93
2022/05/26 03:46:38;;;;;;;50.35;15.90;;;14.00;99.90;;;;;;4944092;28;20055;-93
2022/05/26 03:49:03;;;;;;;45.42;15.23;;;14.00;99.90;;;;;;4949900;28;20047;-92
2022/05/26 03:51:29;;;;;;;43.90;15.35;;;14.00;99.90;;;;;;4925036;28;20054;-94
2022/05/26 03:53:54;;;;;;;35.03;14.15;;;14.00;99.90;;;;;;4941681;28;20424;-93
2022/05/26 03:56:20;;;;;;;37.42;14.45;;;14.00;99.90;;;;;;4938604;28;20456;-93
2022/05/26 03:58:45;;;;;;;37.40;13.43;;;14.00;99.90;;;;;;4932676;28;20132;-94
2022/05/26 04:01:11;;;;;;;39.92;12.77;;;14.00;99.90;;;;;;4927096;28;20074;-93
2022/05/26 04:03:37;;;;;;;34.10;13.48;;;14.00;99.90;;;;;;4939586;28;20039;-94
2022/05/26 04:06:03;;;;;;;42.33;13.50;;;14.00;99.90;;;;;;4946368;28;20051;-91
2022/05/26 04:08:28;;;;;;;33.35;12.98;;;14.00;99.90;;;;;;4947784;28;20046;-94
2022/05/26 04:10:54;;;;;;;43.00;13.50;;;14.00;99.90;;;;;;4929519;28;20079;-91
2022/05/26 04:13:19;;;;;;;33.95;12.05;;;13.90;99.90;;;;;;4931149;28;20062;-93
2022/05/26 04:15:45;;;;;;;37.38;11.98;;;14.00;99.90;;;;;;4926021;28;20058;-93
2022/05/26 04:18:11;;;;;;;38.10;11.63;;;13.90;99.90;;;;;;4943967;28;20146;-92
2022/05/26 04:20:36;;;;;;;29.15;11.32;;;13.90;99.90;;;;;;4922108;29;20054;-92
2022/05/26 04:23:02;;;;;;;30.38;10.82;;;14.00;99.90;;;;;;4941852;28;20043;-92
2022/05/26 04:25:29;;;;;;;34.88;10.63;;;13.90;99.90;;;;;;4966236;28;20050;-91
2022/05/26 04:27:54;;;;;;;29.23;10.23;;;13.90;99.90;;;;;;4961196;28;20102;-91
2022/05/26 04:30:22;;;;;;;32.58;10.27;;;14.00;99.90;;;;;;4965548;28;20818;-91
2022/05/26 04:32:48;;;;;;;26.35;9.20;;;13.90;99.90;;;;;;4963688;28;20133;-89
2022/05/26 04:35:14;;;;;;;22.08;9.00;;;14.00;99.90;;;;;;4934196;28;20134;-90
2022/05/26 04:37:40;;;;;;;25.73;8.65;;;13.90;99.90;;;;;;4935902;28;20404;-91
2022/05/26 04:40:07;;;;;;;23.60;7.78;;;13.90;99.90;;;;;;4951003;28;20423;-90
2022/05/26 04:42:33;;;;;;;20.90;7.55;;;13.90;99.90;;;;;;4942395;28;20047;-91
2022/05/26 04:44:59;;;;;;;22.42;7.80;;;13.90;99.90;;;;;;4962553;28;20507;-90
2022/05/26 04:47:25;;;;;;;23.92;7.63;;;13.90;99.90;;;;;;4964650;28;20055;-88
2022/05/26 04:49:51;;;;;;;20.90;6.90;;;13.90;99.90;;;;;;4954904;28;20070;-89
2022/05/26 04:52:19;;;;;;;19.95;7.25;;;13.90;99.90;;;;;;4963315;28;20039;-88
2022/05/26 04:54:45;;;;;;;20.23;6.65;;;13.90;99.90;;;;;;4930648;28;20038;-89
2022/05/26 04:57:12;;;;;;;19.08;6.20;;;13.80;99.90;;;;;;4951983;28;20047;-87
2022/05/26 04:59:39;;;;;;;18.65;6.32;;;13.80;99.90;;;;;;4931201;28;20986;-87
2022/05/26 05:02:04;;;;;;;19.88;6.63;;;13.70;99.90;;;;;;4946090;28;20170;-87
2022/05/26 05:04:31;;;;;;;18.77;6.53;;;13.70;99.90;;;;;;4929119;28;20126;-88
2022/05/26 05:06:57;;;;;;;17.17;6.10;;;13.80;99.90;;;;;;4939378;28;20047;-88
2022/05/26 05:09:23;;;;;;;16.38;5.57;;;13.80;99.90;;;;;;4955021;28;20050;-88
2022/05/26 05:11:50;;;;;;;15.30;4.85;;;13.90;99.90;;;;;;4937877;28;20047;-88
2022/05/26 05:14:16;;;;;;;15.98;4.82;;;13.90;99.90;;;;;;4951586;28;20051;-88
2022/05/26 05:16:43;;;;;;;16.90;4.57;;;14.00;99.90;;;;;;4949572;28;20050;-92
2022/05/26 05:19:14;;;;;;;13.82;4.38;;;14.00;99.90;;;;;;4940419;28;20050;-94
2022/05/26 05:21:43;;;;;;;;;;;14.00;99.90;;;;;;4943665;29;20074;-95
2022/05/26 05:27:14;;;;;;;11.75;3.60;;;14.10;99.90;;;;;;5396669;23;20058;-96
2022/05/26 05:29:41;;;;;;;14.85;4.38;;;14.10;99.90;;;;;;4967436;28;20139;-95
2022/05/26 05:32:16;;;;;;;12.10;3.55;;;14.10;99.90;;;;;;4970162;28;20101;-95
2022/05/26 05:34:45;;;;;;;12.57;3.65;;;14.20;99.90;;;;;;4958649;28;20516;-94
2022/05/26 05:37:11;;;;;;;10.18;3.35;;;14.10;99.90;;;;;;4964173;28;20432;-93
2022/05/26 05:39:36;;;;;;;9.68;2.70;;;14.20;99.90;;;;;;4965066;28;20388;-92
2022/05/26 05:42:04;;;;;;;10.82;3.30;;;14.30;99.90;;;;;;4971690;28;20050;-94
2022/05/26 05:44:31;;;;;;;10.52;3.10;;;14.30;99.90;;;;;;4948731;28;20039;-93
2022/05/26 05:47:01;;;;;;;10.13;3.08;;;14.40;99.90;;;;;;4973373;28;20039;-94
2022/05/26 05:49:29;;;;;;;12.50;3.20;;;14.40;99.90;;;;;;4972015;28;20035;-94
2022/05/26 05:52:02;;;;;;;13.15;2.92;;;14.50;99.90;;;;;;4974847;28;20137;-95
2022/05/26 05:54:31;;;;;;;11.60;2.83;;;14.50;99.90;;;;;;4947586;28;20051;-94
2022/05/26 05:56:56;;;;;;;7.50;2.30;;;14.60;99.90;;;;;;4937192;28;20047;-92
2022/05/26 05:59:22;;;;;;;9.90;2.53;;;14.70;99.90;;;;;;4962475;28;20047;-92
2022/05/26 06:01:48;;;;;;;7.07;1.98;;;14.90;99.90;;;;;;4969428;28;20069;-95
2022/05/26 06:04:16;;;;;;;8.43;1.80;;;14.80;99.90;;;;;;4954239;28;20514;-96
2022/05/26 06:06:43;;;;;;;9.20;2.17;;;15.00;99.90;;;;;;4933270;28;20046;-93
2022/05/26 06:09:13;;;;;;;7.47;1.67;;;15.00;99.90;;;;;;4962300;28;20051;-94
2022/05/26 06:11:43;;;;;;;7.55;1.70;;;15.10;99.90;;;;;;4960407;28;20051;-94
2022/05/26 06:14:08;;;;;;;7.00;1.92;;;15.00;99.90;;;;;;4943076;28;20035;-94
2022/05/26 06:16:34;;;;;;;6.25;1.75;;;15.10;99.90;;;;;;4959256;28;20485;-92
2022/05/26 06:19:01;;;;;;;7.13;1.73;;;15.00;99.90;;;;;;4971257;28;20034;-90
2022/05/26 06:21:27;;;;;;;6.95;1.52;;;15.00;99.90;;;;;;4940842;28;20098;-92
2022/05/26 06:23:56;;;;;;;6.95;1.80;;;15.00;99.90;;;;;;4949739;28;20411;-89
2022/05/26 06:26:23;;;;;;;5.45;1.45;;;15.00;99.90;;;;;;4954429;28;20408;-90
2022/05/26 06:31:33;;;;;;;7.65;1.60;;;15.10;99.90;;;;;;4955598;28;20357;-89
2022/05/26 06:39:28;;;;;;;8.23;1.50;;;15.30;99.90;;;;;;4957499;28;20047;-92
2022/05/26 06:42:06;;;;;;;8.35;1.50;;;15.50;99.90;;;;;;4957469;28;20047;-93
2022/05/26 06:44:42;;;;;;;8.70;1.88;;;15.60;99.90;;;;;;4941282;28;20397;-91
2022/05/26 06:47:16;;;;;;;5.15;1.45;;;15.80;99.90;;;;;;4953016;28;20069;-93
2022/05/26 06:49:42;;;;;;;8.05;1.40;;;15.80;99.90;;;;;;4941779;28;20167;-92
2022/05/26 06:52:10;;;;;;;5.72;1.30;;;15.80;99.90;;;;;;4941975;28;20095;-91
2022/05/26 06:54:39;;;;;;;7.25;1.70;;;15.80;99.90;;;;;;4959374;28;20523;-95
2022/05/26 06:57:06;;;;;;;9.40;1.67;;;15.80;99.90;;;;;;4970299;28;20042;-95
2022/05/26 06:59:33;;;;;;;5.40;1.40;;;15.90;99.90;;;;;;5001991;23;20022;-96
2022/05/26 07:02:01;;;;;;;9.50;2.17;;;15.90;99.90;;;;;;4926841;29;20074;-96
2022/05/26 07:04:27;;;;;;;6.40;1.40;;;15.90;99.90;;;;;;4912162;29;20046;-94
2022/05/26 07:06:54;;;;;;;6.38;1.20;;;15.90;99.90;;;;;;4920025;29;20071;-94
2022/05/26 07:09:21;;;;;;;7.13;1.60;;;16.00;99.90;;;;;;4938335;29;20043;-95
2022/05/26 07:11:46;;;;;;;5.20;1.20;;;16.10;99.90;;;;;;4930911;29;20054;-95
2022/05/26 07:14:15;;;;;;;5.57;1.50;;;16.20;99.90;;;;;;4934001;29;20039;-96
2022/05/26 07:16:45;;;;;;;6.85;1.48;;;16.20;99.90;;;;;;4929851;29;20118;-91
2022/05/26 07:19:12;;;;;;;6.32;1.40;;;16.20;99.90;;;;;;4933381;29;20103;-94
2022/05/26 07:21:38;;;;;;;6.60;1.35;;;16.30;99.90;;;;;;4913796;29;20048;-92
2022/05/26 07:24:05;;;;;;;8.10;1.40;;;16.20;99.90;;;;;;4910667;29;20095;-93
2022/05/26 07:26:32;;;;;;;5.68;1.33;;;16.20;99.90;;;;;;4913757;29;20047;-91
2022/05/26 07:28:59;;;;;;;5.43;1.30;;;16.20;99.90;;;;;;4915693;29;20066;-94
2022/05/26 07:31:25;;;;;;;5.05;1.20;;;16.30;99.90;;;;;;4927621;29;20126;-92
2022/05/26 07:33:51;;;;;;;6.57;1.50;;;16.30;99.90;;;;;;4930163;29;20090;-90
2022/05/26 07:41:48;;;;;;;7.80;1.30;;;16.40;99.90;;;;;;4925643;29;20066;-90
2022/05/26 07:44:14;;;;;;;5.95;1.48;;;16.40;99.90;;;;;;4929672;29;20531;-90
2022/05/26 07:46:41;;;;;;;5.15;1.20;;;16.50;99.90;;;;;;4928879;29;20078;-95
2022/05/26 07:49:08;;;;;;;5.70;1.10;;;16.50;99.90;;;;;;4928653;29;20043;-89
2022/05/26 07:51:33;;;;;;;5.95;1.35;;;16.50;99.90;;;;;;4914848;29;20324;-94
2022/05/26 07:54:00;;;;;;;3.90;1.15;;;16.50;99.90;;;;;;4931520;29;20146;-94
2022/05/26 07:56:32;;;;;;;7.13;1.50;;;16.60;99.90;;;;;;4933440;29;20051;-95
2022/05/26 07:58:58;;;;;;;6.28;1.45;;;16.60;99.90;;;;;;4932464;29;20040;-94
2022/05/26 08:01:26;;;;;;;7.95;1.40;;;16.60;99.90;;;;;;4934081;29;20084;-95
2022/05/26 08:03:53;;;;;;;4.78;1.33;;;16.60;99.90;;;;;;4934579;29;20434;-94
2022/05/26 08:06:19;;;;;;;5.88;1.30;;;16.70;99.90;;;;;;4933710;29;20416;-93
2022/05/26 08:08:45;;;;;;;6.13;1.67;;;16.70;99.90;;;;;;4938897;29;20055;-95
2022/05/26 08:11:11;;;;;;;7.45;1.70;;;16.60;99.90;;;;;;4934267;29;20048;-94
2022/05/26 08:13:36;;;;;;;6.07;1.20;;;16.50;99.90;;;;;;4934830;29;20048;-90
2022/05/26 08:16:05;;;;;;;5.25;1.48;;;16.50;99.90;;;;;;4934082;29;20059;-94
2022/05/26 08:18:31;;;;;;;7.25;1.65;;;16.50;99.90;;;;;;4933037;29;20156;-94
2022/05/26 08:21:05;;;;;;;6.85;1.48;;;16.50;99.90;;;;;;4934813;29;20039;-89
2022/05/26 08:23:31;;;;;;;6.57;1.17;;;16.60;99.90;;;;;;4935363;29;20126;-92
2022/05/26 08:25:59;;;;;;;6.30;1.40;;;16.70;99.90;;;;;;4932544;29;20088;-92
2022/05/26 08:28:24;;;;;;;4.45;1.35;;;16.70;99.90;;;;;;4938530;29;20108;-95
2022/05/26 08:30:51;;;;;;;7.28;1.38;;;16.70;99.90;;;;;;4918730;29;20074;-94
2022/05/26 08:33:17;;;;;;;6.95;1.23;;;16.80;99.90;;;;;;4938002;29;20048;-95
2022/05/26 08:35:43;;;;;;;5.55;1.10;;;16.80;99.90;;;;;;4933105;29;20423;-91
2022/05/26 08:38:09;;;;;;;5.95;1.00;;;16.90;99.90;;;;;;4925774;29;20047;-95
2022/05/26 08:40:48;;;;;;;6.18;1.20;;;16.90;99.90;;;;;;4923770;29;20633;-93
2022/05/26 08:43:23;;;;;;;6.47;1.10;;;16.90;99.90;;;;;;4909573;29;20118;-95
2022/05/26 08:45:51;;;;;;;5.32;1.20;;;16.90;99.90;;;;;;4939802;29;20040;-96
2022/05/26 08:48:41;;;;;;;3.78;0.85;;;16.90;99.90;;;;;;4936535;29;20052;-92
2022/05/26 08:51:12;;;;;;;5.43;1.10;;;16.90;99.90;;;;;;4934523;29;20605;-94
2022/05/26 08:53:41;;;;;;;6.45;1.38;;;16.90;99.90;;;;;;4919598;29;20052;-95
2022/05/26 08:56:15;;;;;;;6.47;1.20;;;17.00;99.90;;;;;;4936224;29;20132;-94
2022/05/26 08:58:47;;;;;;;5.70;1.30;;;17.00;99.90;;;;;;4933317;29;20047;-90
2022/05/26 09:01:21;;;;;;;5.80;1.08;;;17.00;99.90;;;;;;4923059;29;20054;-96
2022/05/26 09:03:47;;;;;;;4.55;0.98;;;17.20;99.90;;;;;;4918195;29;20055;-95
2022/05/26 09:06:16;;;;;;;5.82;1.00;;;17.30;99.90;;;;;;4920865;29;20059;-94
2022/05/26 09:14:09;;;;;;;4.72;1.30;;;17.90;99.90;;;;;;4937316;29;20072;-93
2022/05/26 09:16:40;;;;;;;5.57;0.93;;;18.00;99.90;;;;;;4918013;29;20056;-96
2022/05/26 09:19:20;;;;;;;3.75;0.90;;;18.00;99.90;;;;;;4906416;29;20047;-93
2022/05/26 09:21:48;;;;;;;5.38;1.10;;;18.00;99.90;;;;;;4934734;29;20048;-94
2022/05/26 09:24:33;;;;;;;4.20;1.00;;;18.00;99.90;;;;;;4934946;29;20483;-95
2022/05/26 09:27:04;;;;;;;6.28;1.20;;;18.00;99.90;;;;;;4916759;29;20062;-91
2022/05/26 09:29:33;;;;;;;5.80;1.20;;;17.90;99.90;;;;;;4932441;29;20467;-94
2022/05/26 09:32:01;;;;;;;6.43;1.10;;;17.90;99.90;;;;;;4935994;29;20035;-92
2022/05/26 09:34:32;;;;;;;7.05;1.67;;;17.90;99.90;;;;;;4936544;29;20082;-96
2022/05/26 09:37:00;;;;;;;4.05;0.98;;;17.90;99.90;;;;;;4932950;29;20039;-92
2022/05/26 09:39:37;;;;;;;5.03;1.08;;;17.90;99.90;;;;;;4916031;29;20043;-94
2022/05/26 09:42:27;;;;;;;4.95;1.10;;;17.90;99.90;;;;;;4929791;29;20063;-92
2022/05/26 09:44:57;;;;;;;5.20;1.17;;;17.90;99.90;;;;;;4923616;29;20047;-93
2022/05/26 09:47:58;;;;;;;5.40;1.23;;;17.90;99.90;;;;;;4929620;29;20071;-91
2022/05/26 09:50:33;;;;;;;4.07;0.90;;;17.90;99.90;;;;;;4913793;29;20075;-92
2022/05/26 09:53:00;;;;;;;6.55;1.10;;;17.80;99.90;;;;;;4929334;29;20135;-90
2022/05/26 09:55:29;;;;;;;6.63;1.17;;;17.80;99.90;;;;;;4928814;29;20366;-91
2022/05/26 09:58:11;;;;;;;5.80;1.05;;;17.80;99.90;;;;;;4911551;29;20393;-91
2022/05/26 10:00:45;;;;;;;3.88;0.90;;;17.90;99.90;;;;;;4928776;29;20059;-93
2022/05/26 10:03:34;;;;;;;3.15;0.80;;;17.90;99.90;;;;;;4927294;29;20047;-91
2022/05/26 10:06:39;;;;;;;5.50;1.08;;;17.90;99.90;;;;;;4912655;29;20071;-89
2022/05/26 10:09:47;;;;;;;4.10;0.80;;;17.90;99.90;;;;;;4927305;29;20058;-91
2022/05/26 10:12:34;;;;;;;4.72;0.90;;;17.80;99.90;;;;;;4928232;29;20098;-90
2022/05/26 10:15:12;;;;;;;6.43;1.10;;;17.90;99.90;;;;;;4930749;29;20044;-89
2022/05/26 10:18:00;;;;;;;4.13;0.88;;;18.10;99.90;;;;;;4932563;29;20044;-93
2022/05/26 10:20:55;;;;;;;3.95;0.95;;;18.00;99.90;;;;;;4910323;29;20143;-90
2022/05/26 10:23:23;;;;;;;4.68;1.00;;;18.00;99.90;;;;;;4917202;29;20035;-94
2022/05/26 10:25:59;;;;;;;4.30;0.80;;;18.00;99.90;;;;;;4914152;29;20035;-92
2022/05/26 10:28:37;;;;;;;4.35;1.13;;;18.00;99.90;;;;;;4934143;29;20055;-96
2022/05/26 10:31:09;;;;;;;6.75;1.42;;;18.00;99.90;;;;;;4917653;29;20154;-90
2022/05/26 10:34:02;;;;;;;5.45;1.20;;;18.00;99.90;;;;;;4934824;29;20395;-91
2022/05/26 10:36:58;;;;;;;5.45;1.13;;;18.00;99.90;;;;;;4942397;29;20095;-92
2022/05/26 10:39:54;;;;;;;4.53;1.02;;;18.10;99.90;;;;;;4933546;29;20047;-90
2022/05/26 10:42:23;;;;;;;4.03;0.93;;;18.20;99.90;;;;;;4921487;29;20044;-92
2022/05/26 10:45:09;;;;;;;6.00;1.30;;;18.20;99.90;;;;;;4932227;29;20058;-92
2022/05/26 10:48:00;;;;;;;5.43;1.35;;;18.20;99.90;;;;;;4934639;29;20365;-94
2022/05/26 10:50:39;;;;;;;5.55;1.23;;;18.30;99.90;;;;;;4929611;29;20035;-93
2022/05/26 10:53:13;;;;;;;6.13;1.38;;;18.20;99.90;;;;;;4930625;29;20070;-87
2022/05/26 10:56:08;;;;;;;5.22;1.50;;;18.10;99.90;;;;;;4927840;29;20179;-91
2022/05/26 10:58:42;;;;;;;5.78;1.50;;;17.90;99.90;;;;;;4924180;29;20079;-91
2022/05/26 11:01:20;;;;;;;6.70;2.08;;;17.70;99.90;;;;;;4896179;29;20059;-91
2022/05/26 11:03:51;;;;;;;5.43;1.70;;;17.60;99.90;;;;;;4928887;29;20166;-92
2022/05/26 11:06:26;;;;;;;8.45;2.13;;;17.40;99.90;;;;;;4931143;29;20132;-89
2022/05/26 11:09:00;;;;;;;8.52;1.90;;;17.40;99.90;;;;;;4926912;29;20387;-91
2022/05/26 11:11:35;;;;;;;8.18;1.90;;;17.60;99.90;;;;;;4913311;29;20425;-90
2022/05/26 11:17:23;;;;;;;6.18;2.08;;;17.80;99.90;;;;;;4931118;29;20055;-88
2022/05/26 11:20:01;;;;;;;7.43;2.10;;;17.90;99.90;;;;;;4910546;29;20134;-92
2022/05/26 11:22:27;;;;;;;6.25;1.83;;;17.90;99.90;;;;;;4934252;29;20043;-90
2022/05/26 11:24:56;;;;;;;6.60;1.63;;;17.90;99.90;;;;;;4929396;29;20039;-90
2022/05/26 11:27:25;;;;;;;5.70;1.80;;;18.10;99.90;;;;;;4936293;29;20098;-95
2022/05/26 11:36:13;;;;;;;7.22;1.70;;;18.00;99.90;;;;;;4940440;29;20055;-93
2022/05/26 11:38:43;;;;;;;7.97;2.00;;;18.00;99.90;;;;;;4940408;29;20075;-92
2022/05/26 11:41:21;;;;;;;8.98;1.90;;;18.10;99.90;;;;;;4939654;29;20052;-94
2022/05/26 11:44:11;;;;;;;5.03;1.23;;;18.10;99.90;;;;;;4921124;29;20050;-91
2022/05/26 11:46:45;;;;;;;5.78;1.30;;;18.00;99.90;;;;;;4932797;29;20531;-95
2022/05/26 11:49:31;;;;;;;6.63;1.40;;;17.90;99.90;;;;;;4923737;29;20453;-95
2022/05/26 11:51:57;;;;;;;6.38;1.50;;;18.00;99.90;;;;;;4936815;29;20040;-93
2022/05/26 11:54:55;;;;;;;5.18;1.30;;;18.00;99.90;;;;;;4935557;29;20035;-91
2022/05/26 11:57:34;;;;;;;6.72;1.55;;;18.20;99.90;;;;;;4920959;29;20769;-94
2022/05/26 12:00:14;;;;;;;7.65;1.50;;;18.20;99.90;;;;;;4936502;29;20090;-94
2022/05/26 12:02:45;;;;;;;6.00;1.17;;;18.20;99.90;;;;;;4933846;29;20075;-92
2022/05/26 12:05:29;;;;;;;5.72;1.35;;;18.20;99.90;;;;;;4936057;29;20039;-94
2022/05/26 12:08:00;;;;;;;6.43;1.20;;;18.30;99.90;;;;;;4920781;29;20048;-95
2022/05/26 12:10:38;;;;;;;5.70;1.23;;;18.50;99.90;;;;;;4933479;29;20035;-96
2022/05/26 12:13:19;;;;;;;8.30;1.65;;;18.60;99.90;;;;;;4902416;29;20492;-95
2022/05/26 12:16:22;;;;;;;7.93;1.30;;;18.60;99.90;;;;;;4918958;29;20058;-93
2022/05/26 12:19:09;;;;;;;4.15;1.48;;;18.50;99.90;;;;;;4931311;29;20079;-93
2022/05/26 12:21:42;;;;;;;7.43;1.50;;;18.40;99.90;;;;;;4938051;29;20098;-93
2022/05/26 12:24:35;;;;;;;7.15;1.83;;;18.50;99.90;;;;;;4919991;29;20122;-94
2022/05/26 12:27:02;;;;;;;5.55;1.10;;;18.60;99.90;;;;;;4921713;29;20051;-95
2022/05/26 12:29:46;;;;;;;5.45;1.30;;;18.60;99.90;;;;;;4918404;29;20185;-93
2022/05/26 12:32:20;;;;;;;4.60;1.17;;;18.60;99.90;;;;;;4933414;29;20055;-89
2022/05/26 12:35:03;;;;;;;4.82;1.30;;;18.60;99.90;;;;;;4930603;29;20074;-95
2022/05/26 12:38:05;;;;;;;6.13;1.35;;;18.80;99.90;;;;;;4945686;29;20043;-91
2022/05/26 12:40:39;;;;;;;3.95;1.40;;;18.90;99.90;;;;;;4892106;29;20067;-91
2022/05/26 12:43:26;;;;;;;7.85;1.40;;;19.10;99.90;;;;;;4932979;29;20515;-91
2022/05/26 12:46:29;;;;;;;3.85;1.00;;;19.10;99.90;;;;;;4933821;29;20099;-94
2022/05/26 12:49:21;;;;;;;5.43;1.30;;;19.10;99.90;;;;;;4934765;29;20892;-90
2022/05/26 12:52:07;;;;;;;7.60;1.30;;;19.00;99.90;;;;;;4933934;29;20083;-92
2022/05/26 12:54:43;;;;;;;5.78;1.30;;;19.00;99.90;;;;;;4935385;29;20073;-94
2022/05/26 12:57:11;;;;;;;6.95;1.70;;;19.00;99.90;;;;;;4922181;29;20139;-93
2022/05/26 12:59:36;;;;;;;7.50;1.40;;;19.00;99.90;;;;;;4936636;29;20083;-93
2022/05/26 13:02:03;;;;;;;6.13;1.35;;;19.00;99.90;;;;;;4938313;29;20505;-96
2022/05/26 13:04:34;;;;;;;5.85;1.40;;;19.00;99.90;;;;;;4919575;29;20497;-91
2022/05/26 13:07:08;;;;;;;8.70;1.60;;;19.10;99.90;;;;;;4920903;29;20052;-95
2022/05/26 13:09:49;;;;;;;5.70;1.65;;;19.10;99.90;;;;;;4936836;29;20071;-93
2022/05/26 13:12:23;;;;;;;4.53;1.23;;;19.10;99.90;;;;;;4937304;29;20058;-93
2022/05/26 13:14:55;;;;;;;7.22;1.60;;;19.20;99.90;;;;;;4934882;29;20055;-94
2022/05/26 13:17:29;;;;;;;6.40;1.33;;;19.10;99.90;;;;;;4917324;29;20409;-90
2022/05/26 13:20:03;;;;;;;3.30;1.00;;;19.10;99.90;;;;;;4937819;29;20052;-92
2022/05/26 13:22:32;;;;;;;5.47;1.15;;;19.20;99.90;;;;;;4915683;29;20048;-91
2022/05/26 13:25:24;;;;;;;5.25;1.33;;;19.20;99.90;;;;;;4922219;29;20614;-95
2022/05/26 13:28:02;;;;;;;6.82;1.10;;;19.20;99.90;;;;;;4934357;29;20066;-93
2022/05/26 13:33:22;;;;;;;7.88;1.58;;;19.10;99.90;;;;;;4935243;29;20047;-95
2022/05/26 13:36:02;;;;;;;4.55;1.20;;;19.00;99.90;;;;;;4920783;29;20040;-94
2022/05/26 13:38:35;;;;;;;8.40;2.20;;;19.00;99.90;;;;;;4918412;29;20051;-93
2022/05/26 13:41:03;;;;;;;7.20;1.45;;;18.90;99.90;;;;;;4936326;29;20047;-93
2022/05/26 13:43:32;;;;;;;7.53;1.60;;;18.90;99.90;;;;;;4919266;29;20075;-94
2022/05/26 13:46:06;;;;;;;6.93;1.70;;;18.90;99.90;;;;;;4935980;29;20122;-93
2022/05/26 13:48:31;;;;;;;7.68;1.50;;;19.00;99.90;;;;;;4934316;29;20107;-94
2022/05/26 13:51:20;;;;;;;7.78;1.90;;;19.00;99.90;;;;;;4938950;29;20071;-94
2022/05/26 13:54:27;;;;;;;6.70;1.38;;;18.90;99.90;;;;;;4922316;29;20060;-92
2022/05/26 13:57:01;;;;;;;5.53;1.40;;;18.70;99.90;;;;;;4931899;29;20059;-94
2022/05/26 13:59:35;;;;;;;6.35;1.52;;;18.70;99.90;;;;;;4935011;29;20397;-93
2022/05/26 14:02:18;;;;;;;9.35;1.90;;;18.70;99.90;;;;;;4920107;29;20052;-91